createdAt,value
2017-06-23T00:00:02.360Z,0
2017-06-23T00:01:02.981Z,0
2017-06-23T00:02:03.599Z,0
2017-06-23T00:03:04.221Z,0
2017-06-23T00:04:04.840Z,0
2017-06-23T00:05:05.537Z,0
2017-06-23T00:06:06.143Z,0
2017-06-23T00:07:06.770Z,0
2017-06-23T00:08:07.392Z,0
2017-06-23T00:09:08.010Z,0
2017-06-23T00:10:08.681Z,0
2017-06-23T00:11:09.302Z,0
2017-06-23T00:12:09.926Z,0
2017-06-23T00:13:10.543Z,0
2017-06-23T00:14:11.163Z,0
2017-06-23T00:15:11.834Z,0
2017-06-23T00:16:12.488Z,0
2017-06-23T00:17:13.106Z,0
2017-06-23T00:18:13.727Z,0
2017-06-23T00:19:14.346Z,0
2017-06-23T00:20:15.015Z,0
2017-06-23T00:21:15.637Z,0
2017-06-23T00:22:16.258Z,0
2017-06-23T00:23:16.877Z,0
2017-06-23T00:24:17.499Z,0
2017-06-23T00:25:18.168Z,0
2017-06-23T00:26:18.788Z,0
2017-06-23T00:27:19.434Z,0
2017-06-23T00:28:20.041Z,0
2017-06-23T00:29:20.664Z,0
2017-06-23T00:30:21.332Z,0
2017-06-23T00:31:21.951Z,0
2017-06-23T00:32:22.570Z,0
2017-06-23T00:33:23.218Z,0
2017-06-23T00:34:23.879Z,0
2017-06-23T00:35:24.552Z,0
2017-06-23T00:36:25.168Z,0
2017-06-23T00:37:25.787Z,0
2017-06-23T00:38:26.406Z,0
2017-06-23T00:39:27.028Z,0
2017-06-23T00:40:27.696Z,0
2017-06-23T00:41:28.318Z,0
2017-06-23T00:42:28.936Z,0
2017-06-23T00:43:29.561Z,0
2017-06-23T00:44:30.178Z,0
2017-06-23T00:45:30.798Z,0
2017-06-23T00:46:31.418Z,0
2017-06-23T00:47:32.071Z,0
2017-06-23T00:48:32.692Z,0
2017-06-23T00:49:33.312Z,0
2017-06-23T00:50:34.015Z,0
2017-06-23T00:51:34.635Z,0
2017-06-23T00:52:35.256Z,0
2017-06-23T00:53:35.905Z,0
2017-06-23T00:54:36.511Z,0
2017-06-23T00:55:37.215Z,0
2017-06-23T00:56:37.834Z,0
2017-06-23T00:57:38.460Z,0
2017-06-23T00:58:39.077Z,0
2017-06-23T00:59:39.697Z,0
2017-06-23T01:00:40.370Z,0
2017-06-23T01:01:40.985Z,0
2017-06-23T01:02:41.631Z,0
2017-06-23T01:03:42.238Z,0
2017-06-23T01:04:42.859Z,0
2017-06-23T01:05:43.528Z,0
2017-06-23T01:06:44.151Z,0
2017-06-23T01:07:44.803Z,0
2017-06-23T01:08:45.406Z,0
2017-06-23T01:09:46.054Z,0
2017-06-23T01:10:46.710Z,0
2017-06-23T01:11:47.331Z,0
2017-06-23T01:12:47.950Z,0
2017-06-23T01:13:48.596Z,0
2017-06-23T01:14:49.205Z,0
2017-06-23T01:15:49.873Z,0
2017-06-23T01:16:50.493Z,0
2017-06-23T01:17:51.146Z,0
2017-06-23T01:18:51.766Z,0
2017-06-23T01:19:52.393Z,0
2017-06-23T01:20:53.063Z,0
2017-06-23T01:21:53.707Z,0
2017-06-23T01:22:54.326Z,0
2017-06-23T01:23:54.945Z,0
2017-06-23T01:24:55.597Z,0
2017-06-23T01:25:56.273Z,0
2017-06-23T01:26:56.890Z,0
2017-06-23T01:27:57.512Z,0
2017-06-23T01:28:58.130Z,0
2017-06-23T01:29:58.751Z,0
2017-06-23T01:30:59.419Z,0
2017-06-23T01:32:00.040Z,0
2017-06-23T01:33:00.691Z,0
2017-06-23T01:34:01.347Z,0
2017-06-23T01:35:01.965Z,0
2017-06-23T01:36:02.637Z,0
2017-06-23T01:37:03.254Z,0
2017-06-23T01:38:03.874Z,0
2017-06-23T01:39:04.493Z,0
2017-06-23T01:40:05.138Z,0
2017-06-23T01:41:05.795Z,0
2017-06-23T01:42:06.413Z,0
2017-06-23T01:43:07.033Z,0
2017-06-23T01:44:07.679Z,0
2017-06-23T01:45:08.285Z,0
2017-06-23T01:46:08.991Z,0
2017-06-23T01:47:09.615Z,0
2017-06-23T01:48:10.230Z,0
2017-06-23T01:49:10.857Z,0
2017-06-23T01:50:11.474Z,0
2017-06-23T01:51:12.145Z,0
2017-06-23T01:52:12.765Z,0
2017-06-23T01:53:13.419Z,0
2017-06-23T01:54:14.063Z,0
2017-06-23T01:55:14.670Z,0
2017-06-23T01:56:15.340Z,0
2017-06-23T01:57:15.966Z,0
2017-06-23T01:58:16.582Z,0
2017-06-23T01:59:17.203Z,0
2017-06-23T02:00:17.825Z,0
2017-06-23T02:01:18.492Z,0
2017-06-23T02:02:19.111Z,0
2017-06-23T02:03:19.757Z,0
2017-06-23T02:04:20.391Z,0
2017-06-23T02:05:20.995Z,0
2017-06-23T02:06:21.665Z,0
2017-06-23T02:07:22.318Z,0
2017-06-23T02:08:22.939Z,0
2017-06-23T02:09:23.558Z,0
2017-06-23T02:10:24.182Z,0
2017-06-23T02:11:24.850Z,0
2017-06-23T02:12:25.468Z,0
2017-06-23T02:13:26.095Z,0
2017-06-23T02:14:26.712Z,0
2017-06-23T02:15:27.330Z,0
2017-06-23T02:16:28.002Z,0
2017-06-23T02:17:28.625Z,0
2017-06-23T02:18:29.242Z,0
2017-06-23T02:19:29.865Z,0
2017-06-23T02:20:30.510Z,0
2017-06-23T02:21:31.165Z,0
2017-06-23T02:22:31.791Z,0
2017-06-23T02:23:32.431Z,0
2017-06-23T02:24:33.038Z,0
2017-06-23T02:25:33.656Z,0
2017-06-23T02:26:34.359Z,0
2017-06-23T02:27:34.979Z,0
2017-06-23T02:28:35.598Z,0
2017-06-23T02:29:36.217Z,0
2017-06-23T02:30:36.839Z,0
2017-06-23T02:31:37.507Z,0
2017-06-23T02:32:38.154Z,0
2017-06-23T02:33:38.758Z,0
2017-06-23T02:34:39.377Z,0
2017-06-23T02:35:39.995Z,0
2017-06-23T02:36:40.664Z,0
2017-06-23T02:37:41.283Z,0
2017-06-23T02:38:41.944Z,0
2017-06-23T02:39:42.559Z,0
2017-06-23T02:40:43.183Z,0
2017-06-23T02:41:43.887Z,0
2017-06-23T02:42:44.506Z,0
2017-06-23T02:43:45.158Z,0
2017-06-23T02:44:45.778Z,0
2017-06-23T02:45:46.397Z,0
2017-06-23T02:46:47.017Z,0
2017-06-23T02:47:47.637Z,0
2017-06-23T02:48:48.261Z,0
2017-06-23T02:49:48.877Z,0
2017-06-23T02:50:49.530Z,0
2017-06-23T02:51:50.199Z,0
2017-06-23T02:52:50.818Z,0
2017-06-23T02:53:51.438Z,0
2017-06-23T02:54:52.120Z,0
2017-06-23T02:55:52.727Z,0
2017-06-23T02:56:53.395Z,0
2017-06-23T02:57:54.016Z,0
2017-06-23T02:58:54.635Z,0
2017-06-23T02:59:55.253Z,0
2017-06-23T03:00:55.899Z,0
2017-06-23T03:01:56.554Z,0
2017-06-23T03:02:57.235Z,0
2017-06-23T03:03:57.868Z,0
2017-06-23T03:04:58.474Z,0
2017-06-23T03:05:59.095Z,0
2017-06-23T03:06:59.765Z,0
2017-06-23T03:08:00.383Z,0
2017-06-23T03:09:01.002Z,0
2017-06-23T03:10:01.663Z,0
2017-06-23T03:11:02.278Z,0
2017-06-23T03:12:02.954Z,0
2017-06-23T03:13:03.568Z,0
2017-06-23T03:14:04.188Z,0
2017-06-23T03:15:04.806Z,0
2017-06-23T03:16:05.424Z,0
2017-06-23T03:17:06.093Z,0
2017-06-23T03:18:06.713Z,0
2017-06-23T03:19:07.337Z,0
2017-06-23T03:20:07.955Z,0
2017-06-23T03:21:08.600Z,0
2017-06-23T03:22:09.258Z,0
2017-06-23T03:23:09.882Z,0
2017-06-23T03:24:10.498Z,0
2017-06-23T03:25:11.144Z,0
2017-06-23T03:26:11.750Z,0
2017-06-23T03:27:12.419Z,0
2017-06-23T03:28:13.036Z,0
2017-06-23T03:29:13.656Z,0
2017-06-23T03:30:14.275Z,0
2017-06-23T03:31:14.896Z,0
2017-06-23T03:32:15.565Z,0
2017-06-23T03:33:16.184Z,0
2017-06-23T03:34:16.834Z,0
2017-06-23T03:35:17.436Z,0
2017-06-23T03:36:18.055Z,0
2017-06-23T03:37:18.724Z,0
2017-06-23T03:38:19.348Z,0
2017-06-23T03:39:19.965Z,0
2017-06-23T03:40:20.619Z,0
2017-06-23T03:41:21.241Z,0
2017-06-23T03:42:21.915Z,0
2017-06-23T03:43:22.530Z,0
2017-06-23T03:44:23.150Z,0
2017-06-23T03:45:23.768Z,0
2017-06-23T03:46:24.394Z,0
2017-06-23T03:47:25.098Z,0
2017-06-23T03:48:25.722Z,0
2017-06-23T03:49:26.343Z,0
2017-06-23T03:50:26.960Z,0
2017-06-23T03:51:27.580Z,0
2017-06-23T03:52:28.249Z,0
2017-06-23T03:53:28.874Z,0
2017-06-23T03:54:29.491Z,0
2017-06-23T03:55:30.110Z,0
2017-06-23T03:56:30.764Z,0
2017-06-23T03:57:31.418Z,0
2017-06-23T03:58:32.097Z,0
2017-06-23T03:59:32.750Z,0
2017-06-23T04:00:33.371Z,0
2017-06-23T04:01:33.990Z,0
2017-06-23T04:02:34.695Z,0
2017-06-23T04:03:35.314Z,0
2017-06-23T04:04:35.942Z,0
2017-06-23T04:05:36.595Z,0
2017-06-23T04:06:37.242Z,0
2017-06-23T04:07:37.898Z,0
2017-06-23T04:08:38.546Z,0
2017-06-23T04:09:39.152Z,0
2017-06-23T04:10:39.771Z,0
2017-06-23T04:11:40.392Z,0
2017-06-23T04:12:41.096Z,0
2017-06-23T04:13:41.732Z,0
2017-06-23T04:14:42.359Z,0
2017-06-23T04:15:42.989Z,0
2017-06-23T04:16:43.596Z,0
2017-06-23T04:17:44.267Z,0
2017-06-23T04:18:44.888Z,0
2017-06-23T04:19:45.509Z,0
2017-06-23T04:20:46.155Z,0
2017-06-23T04:21:46.761Z,0
2017-06-23T04:22:47.430Z,0
2017-06-23T04:23:48.085Z,0
2017-06-23T04:24:48.706Z,0
2017-06-23T04:25:49.359Z,0
2017-06-23T04:26:49.986Z,0
2017-06-23T04:27:50.643Z,0
2017-06-23T04:28:51.265Z,0
2017-06-23T04:29:51.883Z,0
2017-06-23T04:30:52.508Z,0
2017-06-23T04:31:53.126Z,0
2017-06-23T04:32:53.802Z,0
2017-06-23T04:33:54.420Z,0
2017-06-23T04:34:55.044Z,0
2017-06-23T04:35:55.662Z,0
2017-06-23T04:36:56.283Z,0
2017-06-23T04:37:56.987Z,0
2017-06-23T04:38:57.607Z,0
2017-06-23T04:39:58.225Z,0
2017-06-23T04:40:58.850Z,0
2017-06-23T04:41:59.468Z,0
2017-06-23T04:43:00.138Z,0
2017-06-23T04:44:00.764Z,0
2017-06-23T04:45:01.380Z,0
2017-06-23T04:46:02.027Z,0
2017-06-23T04:47:02.663Z,0
2017-06-23T04:48:03.319Z,0
2017-06-23T04:49:03.940Z,0
2017-06-23T04:50:04.559Z,0
2017-06-23T04:51:05.178Z,0
2017-06-23T04:52:05.799Z,0
2017-06-23T04:53:06.442Z,0
2017-06-23T04:54:07.080Z,0
2017-06-23T04:55:07.716Z,0
2017-06-23T04:56:08.345Z,0
2017-06-23T04:57:08.954Z,0
2017-06-23T04:58:09.623Z,0
2017-06-23T04:59:10.243Z,0
2017-06-23T05:00:10.863Z,0
2017-06-23T05:01:11.482Z,0
2017-06-23T05:02:12.101Z,0
2017-06-23T05:03:12.771Z,0
2017-06-23T05:04:13.389Z,0
2017-06-23T05:05:14.011Z,0
2017-06-23T05:06:14.631Z,0
2017-06-23T05:07:15.250Z,0
2017-06-23T05:08:15.919Z,0
2017-06-23T05:09:16.539Z,0
2017-06-23T05:10:17.161Z,0
2017-06-23T05:11:17.781Z,0
2017-06-23T05:12:18.405Z,0
2017-06-23T05:13:19.078Z,5
2017-06-23T05:14:19.738Z,5
2017-06-23T05:15:20.356Z,5
2017-06-23T05:16:20.976Z,5
2017-06-23T05:17:21.593Z,5
2017-06-23T05:18:22.262Z,5
2017-06-23T05:19:22.911Z,5
2017-06-23T05:20:23.515Z,5
2017-06-23T05:21:24.134Z,5
2017-06-23T05:22:24.756Z,5
2017-06-23T05:23:25.427Z,5
2017-06-23T05:24:26.080Z,5
2017-06-23T05:25:26.699Z,5
2017-06-23T05:26:27.325Z,5
2017-06-23T05:27:27.943Z,5
2017-06-23T05:28:28.642Z,5
2017-06-23T05:29:29.246Z,5
2017-06-23T05:30:29.892Z,5
2017-06-23T05:31:30.498Z,5
2017-06-23T05:32:31.147Z,5
2017-06-23T05:33:31.801Z,5
2017-06-23T05:34:32.422Z,5
2017-06-23T05:35:33.040Z,5
2017-06-23T05:36:33.673Z,10
2017-06-23T05:37:34.291Z,10
2017-06-23T05:38:34.965Z,10
2017-06-23T05:39:35.588Z,10
2017-06-23T05:40:36.209Z,10
2017-06-23T05:41:36.869Z,10
2017-06-23T05:42:37.489Z,10
2017-06-23T05:43:38.160Z,10
2017-06-23T05:44:38.782Z,10
2017-06-23T05:45:39.410Z,10
2017-06-23T05:46:40.029Z,10
2017-06-23T05:47:40.650Z,10
2017-06-23T05:48:41.355Z,10
2017-06-23T05:49:41.979Z,10
2017-06-23T05:50:42.599Z,10
2017-06-23T05:51:43.221Z,10
2017-06-23T05:52:43.855Z,10
2017-06-23T05:53:44.551Z,10
2017-06-23T05:54:45.173Z,10
2017-06-23T05:55:45.794Z,10
2017-06-23T05:56:46.417Z,10
2017-06-23T05:57:47.040Z,10
2017-06-23T05:58:47.713Z,10
2017-06-23T05:59:48.335Z,10
2017-06-23T06:00:48.960Z,10
2017-06-23T06:01:49.581Z,10
2017-06-23T06:02:50.236Z,10
2017-06-23T06:03:50.918Z,10
2017-06-23T06:04:51.575Z,10
2017-06-23T06:05:52.204Z,10
2017-06-23T06:06:52.827Z,10
2017-06-23T06:07:53.448Z,10
2017-06-23T06:08:54.145Z,10
2017-06-23T06:09:54.755Z,10
2017-06-23T06:10:55.415Z,10
2017-06-23T06:11:56.037Z,10
2017-06-23T06:12:56.665Z,10
2017-06-23T06:13:57.335Z,10
2017-06-23T06:14:57.963Z,10
2017-06-23T06:15:58.621Z,10
2017-06-23T06:16:59.249Z,10
2017-06-23T06:17:59.869Z,10
2017-06-23T06:19:00.541Z,5
2017-06-23T06:20:01.161Z,5
2017-06-23T06:21:01.818Z,5
2017-06-23T06:22:02.471Z,10
2017-06-23T06:23:03.079Z,10
2017-06-23T06:24:03.750Z,10
2017-06-23T06:25:04.408Z,10
2017-06-23T06:26:05.093Z,10
2017-06-23T06:27:05.716Z,10
2017-06-23T06:28:06.325Z,10
2017-06-23T06:29:07.022Z,10
2017-06-23T06:30:07.658Z,10
2017-06-23T06:31:08.268Z,10
2017-06-23T06:32:08.915Z,10
2017-06-23T06:33:09.525Z,10
2017-06-23T06:34:10.223Z,10
2017-06-23T06:35:10.829Z,5
2017-06-23T06:36:11.456Z,10
2017-06-23T06:37:12.077Z,10
2017-06-23T06:38:12.706Z,10
2017-06-23T06:39:13.326Z,10
2017-06-23T06:40:13.953Z,10
2017-06-23T06:41:14.573Z,5
2017-06-23T06:42:15.194Z,10
2017-06-23T06:43:15.817Z,10
2017-06-23T06:44:16.495Z,10
2017-06-23T06:45:17.116Z,10
2017-06-23T06:46:17.737Z,10
2017-06-23T06:47:18.361Z,10
2017-06-23T06:48:18.987Z,10
2017-06-23T06:49:19.658Z,10
2017-06-23T06:50:20.282Z,10
2017-06-23T06:51:20.903Z,10
2017-06-23T06:52:21.530Z,10
2017-06-23T06:53:22.153Z,10
2017-06-23T06:54:22.826Z,10
2017-06-23T06:55:23.450Z,10
2017-06-23T06:56:24.074Z,10
2017-06-23T06:57:24.726Z,10
2017-06-23T06:58:25.380Z,10
2017-06-23T06:59:26.084Z,10
2017-06-23T07:00:26.692Z,15
2017-06-23T07:01:27.312Z,15
2017-06-23T07:02:27.935Z,15
2017-06-23T07:03:28.558Z,10
2017-06-23T07:04:29.231Z,10
2017-06-23T07:05:29.885Z,10
2017-06-23T07:06:30.491Z,15
2017-06-23T07:07:31.115Z,10
2017-06-23T07:08:31.743Z,10
2017-06-23T07:09:32.438Z,10
2017-06-23T07:10:33.094Z,15
2017-06-23T07:11:33.718Z,15
2017-06-23T07:12:34.341Z,20
2017-06-23T07:13:34.974Z,15
2017-06-23T07:14:35.639Z,15
2017-06-23T07:15:36.272Z,20
2017-06-23T07:16:36.928Z,15
2017-06-23T07:17:37.556Z,10
2017-06-23T07:18:38.176Z,10
2017-06-23T07:19:38.850Z,10
2017-06-23T07:20:39.473Z,10
2017-06-23T07:21:40.095Z,10
2017-06-23T07:22:40.717Z,10
2017-06-23T07:23:41.340Z,10
2017-06-23T07:24:42.017Z,10
2017-06-23T07:25:42.641Z,10
2017-06-23T07:26:43.298Z,10
2017-06-23T07:27:43.922Z,15
2017-06-23T07:28:44.546Z,10
2017-06-23T07:29:45.224Z,10
2017-06-23T07:30:45.845Z,10
2017-06-23T07:31:46.468Z,10
2017-06-23T07:32:47.127Z,10
2017-06-23T07:33:47.780Z,15
2017-06-23T07:34:48.438Z,15
2017-06-23T07:35:49.064Z,15
2017-06-23T07:36:49.687Z,10
2017-06-23T07:37:50.311Z,10
2017-06-23T07:38:50.967Z,10
2017-06-23T07:39:51.640Z,10
2017-06-23T07:40:52.264Z,15
2017-06-23T07:41:52.886Z,15
2017-06-23T07:42:53.512Z,15
2017-06-23T07:43:54.134Z,15
2017-06-23T07:44:54.810Z,15
2017-06-23T07:45:55.435Z,15
2017-06-23T07:46:56.086Z,15
2017-06-23T07:47:56.687Z,15
2017-06-23T07:48:57.316Z,20
2017-06-23T07:49:57.990Z,25
2017-06-23T07:50:58.644Z,20
2017-06-23T07:51:59.268Z,20
2017-06-23T07:52:59.892Z,20
2017-06-23T07:54:00.515Z,25
2017-06-23T07:55:01.221Z,20
2017-06-23T07:56:01.844Z,20
2017-06-23T07:57:02.470Z,25
2017-06-23T07:58:03.132Z,20
2017-06-23T07:59:03.786Z,20
2017-06-23T08:00:04.471Z,20
2017-06-23T08:01:05.080Z,20
2017-06-23T08:02:05.735Z,20
2017-06-23T08:03:06.349Z,15
2017-06-23T08:04:06.970Z,20
2017-06-23T08:05:07.644Z,20
2017-06-23T08:06:08.269Z,15
2017-06-23T08:07:08.926Z,15
2017-06-23T08:08:09.583Z,20
2017-06-23T08:09:10.233Z,15
2017-06-23T08:10:10.893Z,15
2017-06-23T08:11:11.553Z,15
2017-06-23T08:12:12.186Z,15
2017-06-23T08:13:12.828Z,25
2017-06-23T08:14:13.459Z,25
2017-06-23T08:15:14.119Z,20
2017-06-23T08:16:14.742Z,25
2017-06-23T08:17:15.365Z,20
2017-06-23T08:18:15.993Z,25
2017-06-23T08:19:16.616Z,20
2017-06-23T08:20:17.295Z,20
2017-06-23T08:21:17.918Z,20
2017-06-23T08:22:18.577Z,20
2017-06-23T08:23:19.200Z,20
2017-06-23T08:24:19.823Z,20
2017-06-23T08:25:20.498Z,15
2017-06-23T08:26:21.122Z,20
2017-06-23T08:27:21.752Z,20
2017-06-23T08:28:22.373Z,20
2017-06-23T08:29:23.002Z,20
2017-06-23T08:30:23.683Z,20
2017-06-23T08:31:24.302Z,20
2017-06-23T08:32:24.928Z,20
2017-06-23T08:33:25.549Z,20
2017-06-23T08:34:26.175Z,20
2017-06-23T08:35:26.850Z,20
2017-06-23T08:36:27.471Z,20
2017-06-23T08:37:28.129Z,20
2017-06-23T08:38:28.759Z,20
2017-06-23T08:39:29.388Z,20
2017-06-23T08:40:30.097Z,20
2017-06-23T08:41:30.721Z,20
2017-06-23T08:42:31.347Z,20
2017-06-23T08:43:31.974Z,20
2017-06-23T08:44:32.597Z,20
2017-06-23T08:45:33.271Z,20
2017-06-23T08:46:33.930Z,20
2017-06-23T08:47:34.615Z,20
2017-06-23T08:48:35.259Z,20
2017-06-23T08:49:35.896Z,20
2017-06-23T08:50:36.606Z,20
2017-06-23T08:51:37.230Z,20
2017-06-23T08:52:37.857Z,20
2017-06-23T08:53:38.482Z,25
2017-06-23T08:54:39.107Z,25
2017-06-23T08:55:39.783Z,25
2017-06-23T08:56:40.408Z,25
2017-06-23T08:57:41.058Z,25
2017-06-23T08:58:41.670Z,25
2017-06-23T08:59:42.295Z,25
2017-06-23T09:00:42.969Z,25
2017-06-23T09:01:43.619Z,25
2017-06-23T09:02:44.235Z,20
2017-06-23T09:03:44.857Z,15
2017-06-23T09:04:45.481Z,25
2017-06-23T09:05:46.183Z,25
2017-06-23T09:06:46.797Z,30
2017-06-23T09:07:47.427Z,30
2017-06-23T09:08:48.056Z,30
2017-06-23T09:09:48.678Z,30
2017-06-23T09:10:49.353Z,20
2017-06-23T09:11:49.985Z,30
2017-06-23T09:12:50.641Z,30
2017-06-23T09:13:51.266Z,30
2017-06-23T09:14:51.892Z,30
2017-06-23T09:15:52.569Z,30
2017-06-23T09:16:53.194Z,20
2017-06-23T09:17:53.819Z,25
2017-06-23T09:18:54.445Z,20
2017-06-23T09:19:55.070Z,30
2017-06-23T09:20:55.747Z,30
2017-06-23T09:21:56.374Z,30
2017-06-23T09:22:56.999Z,30
2017-06-23T09:23:57.625Z,15
2017-06-23T09:24:58.254Z,20
2017-06-23T09:25:58.955Z,20
2017-06-23T09:26:59.616Z,20
2017-06-23T09:28:00.276Z,20
2017-06-23T09:29:00.902Z,20
2017-06-23T09:30:01.526Z,20
2017-06-23T09:31:02.231Z,20
2017-06-23T09:32:02.844Z,20
2017-06-23T09:33:03.467Z,20
2017-06-23T09:34:04.123Z,15
2017-06-23T09:35:04.778Z,15
2017-06-23T09:36:05.453Z,20
2017-06-23T09:37:06.079Z,20
2017-06-23T09:38:06.705Z,20
2017-06-23T09:39:07.330Z,35
2017-06-23T09:40:07.954Z,30
2017-06-23T09:41:08.632Z,20
2017-06-23T09:42:09.256Z,20
2017-06-23T09:43:09.880Z,15
2017-06-23T09:44:10.504Z,15
2017-06-23T09:45:11.130Z,10
2017-06-23T09:46:11.842Z,10
2017-06-23T09:47:12.468Z,10
2017-06-23T09:48:13.095Z,10
2017-06-23T09:49:13.720Z,15
2017-06-23T09:50:14.351Z,15
2017-06-23T09:51:15.027Z,20
2017-06-23T09:52:15.687Z,20
2017-06-23T09:53:16.314Z,20
2017-06-23T09:54:16.939Z,20
2017-06-23T09:55:17.565Z,25
2017-06-23T09:56:18.271Z,20
2017-06-23T09:57:18.900Z,15
2017-06-23T09:58:19.527Z,15
2017-06-23T09:59:20.150Z,15
2017-06-23T10:00:20.777Z,15
2017-06-23T10:01:21.477Z,15
2017-06-23T10:02:22.089Z,20
2017-06-23T10:03:22.712Z,20
2017-06-23T10:04:23.337Z,20
2017-06-23T10:05:23.964Z,20
2017-06-23T10:06:24.661Z,20
2017-06-23T10:07:25.275Z,20
2017-06-23T10:08:25.900Z,20
2017-06-23T10:09:26.531Z,20
2017-06-23T10:10:27.153Z,25
2017-06-23T10:11:27.835Z,20
2017-06-23T10:12:28.462Z,20
2017-06-23T10:13:29.089Z,20
2017-06-23T10:14:29.712Z,20
2017-06-23T10:15:30.340Z,15
2017-06-23T10:16:31.019Z,15
2017-06-23T10:17:31.638Z,15
2017-06-23T10:18:32.265Z,15
2017-06-23T10:19:32.888Z,15
2017-06-23T10:20:33.519Z,15
2017-06-23T10:21:34.197Z,15
2017-06-23T10:22:34.819Z,20
2017-06-23T10:23:35.504Z,20
2017-06-23T10:24:36.114Z,20
2017-06-23T10:25:36.774Z,20
2017-06-23T10:26:37.448Z,25
2017-06-23T10:27:38.072Z,25
2017-06-23T10:28:38.724Z,25
2017-06-23T10:29:39.367Z,25
2017-06-23T10:30:39.977Z,25
2017-06-23T10:31:40.653Z,25
2017-06-23T10:32:41.277Z,25
2017-06-23T10:33:41.912Z,30
2017-06-23T10:34:42.562Z,40
2017-06-23T10:35:43.175Z,35
2017-06-23T10:36:43.855Z,30
2017-06-23T10:37:44.485Z,45
2017-06-23T10:38:45.107Z,35
2017-06-23T10:39:45.731Z,45
2017-06-23T10:40:46.357Z,30
2017-06-23T10:41:47.032Z,30
2017-06-23T10:42:47.657Z,25
2017-06-23T10:43:48.282Z,30
2017-06-23T10:44:48.907Z,45
2017-06-23T10:45:49.596Z,25
2017-06-23T10:46:50.258Z,35
2017-06-23T10:47:50.887Z,30
2017-06-23T10:48:51.510Z,30
2017-06-23T10:49:52.172Z,30
2017-06-23T10:50:52.798Z,25
2017-06-23T10:51:53.471Z,25
2017-06-23T10:52:54.099Z,25
2017-06-23T10:53:54.726Z,25
2017-06-23T10:54:55.357Z,25
2017-06-23T10:55:55.984Z,25
2017-06-23T10:56:56.657Z,25
2017-06-23T10:57:57.283Z,25
2017-06-23T10:58:57.907Z,30
2017-06-23T10:59:58.532Z,35
2017-06-23T11:00:59.157Z,30
2017-06-23T11:01:59.833Z,55
2017-06-23T11:03:00.461Z,45
2017-06-23T11:04:01.086Z,30
2017-06-23T11:05:01.714Z,30
2017-06-23T11:06:02.340Z,45
2017-06-23T11:07:03.017Z,30
2017-06-23T11:08:03.641Z,25
2017-06-23T11:09:04.300Z,35
2017-06-23T11:10:04.927Z,20
2017-06-23T11:11:05.556Z,25
2017-06-23T11:12:06.231Z,30
2017-06-23T11:13:06.858Z,30
2017-06-23T11:14:07.484Z,45
2017-06-23T11:15:08.114Z,30
2017-06-23T11:16:08.772Z,30
2017-06-23T11:17:09.480Z,50
2017-06-23T11:18:10.107Z,25
2017-06-23T11:19:10.743Z,50
2017-06-23T11:20:11.370Z,45
2017-06-23T11:21:11.995Z,45
2017-06-23T11:22:12.673Z,25
2017-06-23T11:23:13.334Z,50
2017-06-23T11:24:13.964Z,50
2017-06-23T11:25:14.587Z,50
2017-06-23T11:26:15.214Z,50
2017-06-23T11:27:15.891Z,50
2017-06-23T11:28:16.517Z,20
2017-06-23T11:29:17.149Z,50
2017-06-23T11:30:17.779Z,50
2017-06-23T11:31:18.403Z,50
2017-06-23T11:32:19.080Z,50
2017-06-23T11:33:19.707Z,50
2017-06-23T11:34:20.334Z,55
2017-06-23T11:35:20.987Z,55
2017-06-23T11:36:21.628Z,55
2017-06-23T11:37:22.289Z,55
2017-06-23T11:38:22.915Z,55
2017-06-23T11:39:23.543Z,55
2017-06-23T11:40:24.171Z,55
2017-06-23T11:41:24.835Z,50
2017-06-23T11:42:25.512Z,20
2017-06-23T11:43:26.170Z,55
2017-06-23T11:44:26.782Z,55
2017-06-23T11:45:27.459Z,55
2017-06-23T11:46:28.139Z,55
2017-06-23T11:47:28.764Z,55
2017-06-23T11:48:29.394Z,55
2017-06-23T11:49:30.030Z,20
2017-06-23T11:50:30.707Z,25
2017-06-23T11:51:31.373Z,20
2017-06-23T11:52:31.999Z,20
2017-06-23T11:53:32.631Z,30
2017-06-23T11:54:33.257Z,50
2017-06-23T11:55:33.935Z,35
2017-06-23T11:56:34.615Z,55
2017-06-23T11:57:35.242Z,55
2017-06-23T11:58:35.872Z,55
2017-06-23T11:59:36.499Z,55
2017-06-23T12:00:37.188Z,55
2017-06-23T12:01:37.849Z,55
2017-06-23T12:02:38.527Z,55
2017-06-23T12:03:39.175Z,50
2017-06-23T12:04:39.787Z,50
2017-06-23T12:05:40.466Z,50
2017-06-23T12:06:41.122Z,50
2017-06-23T12:07:41.737Z,50
2017-06-23T12:08:42.362Z,55
2017-06-23T12:09:42.992Z,55
2017-06-23T12:10:43.669Z,55
2017-06-23T12:11:44.309Z,55
2017-06-23T12:12:44.931Z,55
2017-06-23T12:13:45.561Z,55
2017-06-23T12:14:46.223Z,55
2017-06-23T12:15:46.935Z,55
2017-06-23T12:16:47.612Z,55
2017-06-23T12:17:48.264Z,55
2017-06-23T12:18:48.892Z,55
2017-06-23T12:19:49.522Z,55
2017-06-23T12:20:50.204Z,60
2017-06-23T12:21:50.829Z,60
2017-06-23T12:22:51.458Z,60
2017-06-23T12:23:52.137Z,60
2017-06-23T12:24:52.766Z,65
2017-06-23T12:25:53.402Z,60
2017-06-23T12:26:54.033Z,60
2017-06-23T12:27:54.695Z,40
2017-06-23T12:28:55.373Z,25
2017-06-23T12:29:56.004Z,20
2017-06-23T12:30:56.633Z,25
2017-06-23T12:31:57.263Z,30
2017-06-23T12:32:57.923Z,30
2017-06-23T12:33:58.632Z,60
2017-06-23T12:34:59.245Z,50
2017-06-23T12:35:59.899Z,25
2017-06-23T12:37:00.513Z,45
2017-06-23T12:38:01.169Z,50
2017-06-23T12:39:02.033Z,60
2017-06-23T12:40:02.664Z,25
2017-06-23T12:41:03.289Z,60
2017-06-23T12:42:03.920Z,60
2017-06-23T12:43:04.551Z,60
2017-06-23T12:44:05.227Z,60
2017-06-23T12:45:05.853Z,60
2017-06-23T12:46:06.481Z,60
2017-06-23T12:47:07.112Z,60
2017-06-23T12:48:07.738Z,60
2017-06-23T12:49:08.470Z,60
2017-06-23T12:50:09.095Z,60
2017-06-23T12:51:09.750Z,60
2017-06-23T12:52:10.365Z,60
2017-06-23T12:53:10.992Z,60
2017-06-23T12:54:11.673Z,60
2017-06-23T12:55:12.333Z,60
2017-06-23T12:56:13.018Z,60
2017-06-23T12:57:13.633Z,60
2017-06-23T12:58:14.290Z,60
2017-06-23T12:59:14.955Z,60
2017-06-23T13:00:15.609Z,60
2017-06-23T13:01:16.249Z,60
2017-06-23T13:02:16.892Z,60
2017-06-23T13:03:17.509Z,60
2017-06-23T13:04:18.190Z,60
2017-06-23T13:05:18.815Z,60
2017-06-23T13:06:19.448Z,60
2017-06-23T13:07:20.073Z,60
2017-06-23T13:08:20.706Z,60
2017-06-23T13:09:21.384Z,60
2017-06-23T13:10:22.014Z,60
2017-06-23T13:11:22.648Z,60
2017-06-23T13:12:23.276Z,60
2017-06-23T13:13:23.913Z,60
2017-06-23T13:14:24.584Z,60
2017-06-23T13:15:25.219Z,60
2017-06-23T13:16:25.851Z,60
2017-06-23T13:17:26.482Z,60
2017-06-23T13:18:27.133Z,60
2017-06-23T13:19:27.799Z,65
2017-06-23T13:20:28.434Z,65
2017-06-23T13:21:29.065Z,65
2017-06-23T13:22:29.724Z,65
2017-06-23T13:23:30.340Z,65
2017-06-23T13:24:31.020Z,30
2017-06-23T13:25:31.681Z,20
2017-06-23T13:26:32.326Z,20
2017-06-23T13:27:32.941Z,25
2017-06-23T13:28:33.570Z,35
2017-06-23T13:29:34.249Z,35
2017-06-23T13:30:34.879Z,65
2017-06-23T13:31:35.515Z,65
2017-06-23T13:32:36.140Z,65
2017-06-23T13:33:36.773Z,65
2017-06-23T13:34:37.486Z,65
2017-06-23T13:35:38.175Z,65
2017-06-23T13:36:38.791Z,65
2017-06-23T13:37:39.449Z,65
2017-06-23T13:38:40.112Z,65
2017-06-23T13:39:40.792Z,65
2017-06-23T13:40:41.423Z,65
2017-06-23T13:41:42.052Z,65
2017-06-23T13:42:42.682Z,65
2017-06-23T13:43:43.319Z,65
2017-06-23T13:44:44.002Z,50
2017-06-23T13:45:44.629Z,30
2017-06-23T13:46:45.266Z,65
2017-06-23T13:47:45.895Z,65
2017-06-23T13:48:46.523Z,65
2017-06-23T13:49:47.237Z,65
2017-06-23T13:50:47.898Z,65
2017-06-23T13:51:48.527Z,65
2017-06-23T13:52:49.190Z,65
2017-06-23T13:53:49.820Z,65
2017-06-23T13:54:50.499Z,65
2017-06-23T13:55:51.128Z,65
2017-06-23T13:56:51.758Z,65
2017-06-23T13:57:52.388Z,65
2017-06-23T13:58:53.015Z,65
2017-06-23T13:59:53.696Z,65
2017-06-23T14:00:54.326Z,65
2017-06-23T14:01:54.957Z,65
2017-06-23T14:02:55.587Z,65
2017-06-23T14:03:56.218Z,65
2017-06-23T14:04:56.899Z,65
2017-06-23T14:05:57.526Z,65
2017-06-23T14:06:58.187Z,65
2017-06-23T14:07:58.842Z,65
2017-06-23T14:08:59.460Z,70
2017-06-23T14:10:00.137Z,65
2017-06-23T14:11:00.767Z,65
2017-06-23T14:12:01.396Z,65
2017-06-23T14:13:02.034Z,65
2017-06-23T14:14:02.659Z,65
2017-06-23T14:15:03.372Z,65
2017-06-23T14:16:04.003Z,60
2017-06-23T14:17:04.634Z,60
2017-06-23T14:18:05.263Z,60
2017-06-23T14:19:05.891Z,60
2017-06-23T14:20:06.569Z,60
2017-06-23T14:21:07.203Z,60
2017-06-23T14:22:07.829Z,60
2017-06-23T14:23:08.457Z,60
2017-06-23T14:24:09.093Z,60
2017-06-23T14:25:09.769Z,65
2017-06-23T14:26:10.398Z,60
2017-06-23T14:27:11.051Z,60
2017-06-23T14:28:11.668Z,60
2017-06-23T14:29:12.308Z,60
2017-06-23T14:30:12.990Z,60
2017-06-23T14:31:13.620Z,60
2017-06-23T14:32:14.255Z,60
2017-06-23T14:33:14.942Z,60
2017-06-23T14:34:15.604Z,60
2017-06-23T14:35:16.308Z,60
2017-06-23T14:36:16.926Z,60